Time;durP1;ratioP1;P1;durP2;ratioP2;P2;SDS_P1;SDS_P2;PMS_P1;PMS_P2;Temp;Humidity;BMP_temperature;BMP_pressure;BME280_temperature;BME280_humidity;BME280_pressure;Samples;Min_cycle;Max_cycle;Signal;HPM_P1;HPM_P2
2020/12/15 00:01:56;;;;;;;7.20;2.75;;;9.80;99.90;;;;;;4178158;28;20033;-70
2020/12/15 00:03:57;;;;;;;4.55;2.30;;;9.80;99.90;;;;;;4171692;28;20043;-70
2020/12/15 00:05:57;;;;;;;5.57;2.28;;;9.80;99.90;;;;;;4174863;28;20057;-70
2020/12/15 00:07:58;;;;;;;8.18;2.70;;;9.80;99.90;;;;;;4161249;28;20033;-70
2020/12/15 00:09:59;;;;;;;4.82;2.47;;;9.80;99.90;;;;;;4169649;28;20018;-70
2020/12/15 00:12:00;;;;;;;4.63;2.78;;;9.80;99.90;;;;;;4167295;28;20028;-70
2020/12/15 00:14:01;;;;;;;4.38;2.67;;;9.80;99.90;;;;;;4169942;28;20116;-70
2020/12/15 00:16:02;;;;;;;4.03;2.28;;;9.80;99.90;;;;;;4172603;28;20049;-70
2020/12/15 00:18:03;;;;;;;4.57;2.50;;;9.80;99.90;;;;;;4165814;28;20078;-70
2020/12/15 00:20:07;;;;;;;5.05;2.60;;;9.80;99.90;;;;;;4176913;28;20017;-70
2020/12/15 00:22:08;;;;;;;4.07;2.60;;;9.80;99.90;;;;;;4162973;28;20105;-70
2020/12/15 00:24:10;;;;;;;5.65;2.70;;;9.80;99.90;;;;;;4171501;28;20392;-70
2020/12/15 00:26:10;;;;;;;4.13;2.63;;;9.80;99.90;;;;;;4162439;28;20088;-70
2020/12/15 00:28:11;;;;;;;5.15;2.55;;;9.80;99.90;;;;;;4169248;28;20471;-70
2020/12/15 00:30:11;;;;;;;5.80;3.10;;;9.80;99.90;;;;;;4179475;28;20401;-70
2020/12/15 00:32:12;;;;;;;4.47;2.40;;;9.70;99.90;;;;;;4162406;28;20442;-70
2020/12/15 00:34:12;;;;;;;8.38;2.85;;;9.60;99.90;;;;;;4179238;28;20029;-70
2020/12/15 00:36:18;;;;;;;6.50;2.40;;;9.60;99.90;;;;;;4170605;28;20362;-70
2020/12/15 00:38:19;;;;;;;7.32;2.65;;;9.60;99.90;;;;;;4163145;28;20381;-70
2020/12/15 00:40:20;;;;;;;4.53;2.60;;;9.60;99.90;;;;;;4178035;28;20040;-70
2020/12/15 00:42:21;;;;;;;6.35;2.67;;;9.50;99.90;;;;;;4164221;28;20033;-70
2020/12/15 00:44:21;;;;;;;5.75;2.60;;;9.50;99.90;;;;;;4179286;28;20036;-70
2020/12/15 00:46:22;;;;;;;6.90;2.83;;;9.50;99.90;;;;;;4168224;28;20041;-70
2020/12/15 00:48:22;;;;;;;5.18;2.92;;;9.50;99.90;;;;;;4157023;28;20516;-70
2020/12/15 00:50:23;;;;;;;6.15;2.90;;;9.40;99.90;;;;;;4177107;28;20381;-70
2020/12/15 00:52:28;;;;;;;7.43;3.00;;;9.40;99.90;;;;;;4162643;28;20068;-70
2020/12/15 00:54:29;;;;;;;3.67;2.70;;;9.30;99.90;;;;;;4167816;28;20041;-70
2020/12/15 00:56:29;;;;;;;7.15;2.67;;;9.30;99.90;;;;;;4168175;28;20030;-70
2020/12/15 00:58:30;;;;;;;4.53;2.83;;;9.30;99.90;;;;;;4173132;28;20056;-70
2020/12/15 01:00:31;;;;;;;3.53;2.45;;;9.30;99.90;;;;;;4174167;28;20033;-70
2020/12/15 01:02:32;;;;;;;4.80;3.03;;;9.20;99.90;;;;;;4159543;28;20053;-69
2020/12/15 01:04:32;;;;;;;7.40;3.40;;;9.30;99.90;;;;;;4164933;28;20420;-70
2020/12/15 01:06:33;;;;;;;4.95;2.95;;;9.30;99.90;;;;;;4161736;28;20037;-69
2020/12/15 01:08:34;;;;;;;5.55;2.97;;;9.10;99.90;;;;;;4163075;28;20059;-69
2020/12/15 01:10:34;;;;;;;5.07;2.92;;;9.10;99.90;;;;;;4173101;28;20090;-70
2020/12/15 01:12:36;;;;;;;4.80;3.10;;;9.20;99.90;;;;;;4160684;28;20037;-69
2020/12/15 01:14:37;;;;;;;8.38;3.75;;;9.10;99.90;;;;;;4173252;28;20112;-70
2020/12/15 01:16:39;;;;;;;4.47;3.10;;;9.10;99.90;;;;;;4173961;28;20035;-69
2020/12/15 01:18:40;;;;;;;6.53;3.35;;;9.00;99.90;;;;;;4163208;28;20112;-69
2020/12/15 01:20:41;;;;;;;5.03;2.55;;;9.00;99.90;;;;;;4151109;28;20022;-70
2020/12/15 01:22:41;;;;;;;8.10;3.15;;;9.00;99.90;;;;;;4166698;28;20485;-70
2020/12/15 01:24:42;;;;;;;6.78;3.38;;;9.00;99.90;;;;;;4171503;28;20044;-69
2020/12/15 01:26:45;;;;;;;7.55;3.58;;;9.00;99.90;;;;;;4174887;28;20362;-70
2020/12/15 01:28:46;;;;;;;6.25;3.05;;;8.90;99.90;;;;;;4166643;28;20504;-70
2020/12/15 01:30:47;;;;;;;6.88;3.10;;;8.90;99.90;;;;;;4176899;28;20029;-69
2020/12/15 01:32:49;;;;;;;4.57;2.90;;;8.90;99.90;;;;;;4165707;28;20036;-70
2020/12/15 01:34:49;;;;;;;4.10;2.80;;;8.90;99.90;;;;;;4172367;28;20041;-70
2020/12/15 01:36:50;;;;;;;4.82;2.65;;;8.90;99.90;;;;;;4173613;28;20045;-70
2020/12/15 01:38:52;;;;;;;;;;;8.90;99.90;;;;;;4163511;28;20746;-70
2020/12/15 01:40:53;;;;;;;6.20;2.95;;;8.80;99.90;;;;;;4175431;28;19964;-70
2020/12/15 01:42:54;;;;;;;5.40;3.08;;;8.80;99.90;;;;;;4160993;28;20365;-70
2020/12/15 01:44:54;;;;;;;5.63;3.13;;;8.80;99.90;;;;;;4174032;28;20145;-70
2020/12/15 01:46:55;;;;;;;5.88;3.00;;;8.80;99.90;;;;;;4161688;28;20114;-70
2020/12/15 01:48:57;;;;;;;6.25;2.60;;;8.70;99.90;;;;;;4167325;28;20029;-70
2020/12/15 01:50:57;;;;;;;4.93;2.88;;;8.70;99.90;;;;;;4178043;28;20062;-70
2020/12/15 01:52:58;;;;;;;6.28;3.10;;;8.70;99.90;;;;;;4163296;28;20112;-70
2020/12/15 01:55:00;;;;;;;4.78;3.05;;;8.70;99.90;;;;;;4173466;28;20124;-70
2020/12/15 01:57:01;;;;;;;5.43;2.40;;;8.70;99.90;;;;;;4176210;28;20037;-70
2020/12/15 01:59:03;;;;;;;5.55;3.13;;;8.70;99.90;;;;;;4166079;28;20032;-70
2020/12/15 02:01:04;;;;;;;5.38;2.88;;;8.70;99.90;;;;;;4170914;28;20043;-70
2020/12/15 02:03:05;;;;;;;5.10;3.28;;;8.70;99.90;;;;;;4161298;28;20557;-70
2020/12/15 02:05:06;;;;;;;4.90;2.63;;;8.70;99.90;;;;;;4175818;28;20033;-70
2020/12/15 02:07:07;;;;;;;5.00;3.08;;;8.70;99.90;;;;;;4163720;28;20079;-70
2020/12/15 02:09:08;;;;;;;4.65;2.78;;;8.60;99.90;;;;;;4161153;28;20116;-70
2020/12/15 02:11:09;;;;;;;5.40;3.00;;;8.60;99.90;;;;;;4168767;28;20040;-70
2020/12/15 02:13:10;;;;;;;5.90;2.88;;;8.60;99.90;;;;;;4156961;28;20109;-70
2020/12/15 02:15:11;;;;;;;4.80;2.85;;;8.60;99.90;;;;;;4169481;28;20033;-70
2020/12/15 02:17:13;;;;;;;4.63;2.60;;;8.60;99.90;;;;;;4172970;28;20043;-70
2020/12/15 02:19:16;;;;;;;4.63;2.97;;;8.60;99.90;;;;;;4161199;28;20029;-70
2020/12/15 02:21:16;;;;;;;5.53;3.10;;;8.50;99.90;;;;;;4157332;28;20069;-70
2020/12/15 02:23:17;;;;;;;5.63;3.13;;;8.50;99.90;;;;;;4164383;28;20103;-70
2020/12/15 02:25:17;;;;;;;4.80;2.95;;;8.50;99.90;;;;;;4175681;28;20037;-70
2020/12/15 02:27:18;;;;;;;7.40;2.90;;;8.60;99.90;;;;;;4176652;28;20036;-70
2020/12/15 02:29:19;;;;;;;5.43;2.75;;;8.50;99.90;;;;;;4160773;28;20524;-70
2020/12/15 02:31:19;;;;;;;6.07;3.17;;;8.50;99.90;;;;;;4167769;28;20037;-71
2020/12/15 02:33:20;;;;;;;4.88;2.85;;;8.50;99.90;;;;;;4166621;28;20029;-71
2020/12/15 02:35:21;;;;;;;8.25;3.58;;;8.50;99.90;;;;;;4170232;28;20041;-70
2020/12/15 02:37:22;;;;;;;3.80;2.35;;;8.50;99.90;;;;;;4158231;28;20037;-70
2020/12/15 02:39:22;;;;;;;4.70;2.65;;;8.50;99.90;;;;;;4167640;28;20033;-71
2020/12/15 02:41:23;;;;;;;5.82;2.92;;;8.60;99.90;;;;;;4165426;28;20171;-71
2020/12/15 02:43:23;;;;;;;6.05;3.28;;;8.60;99.90;;;;;;4165661;28;20118;-71
2020/12/15 02:45:24;;;;;;;8.00;3.30;;;8.50;99.90;;;;;;4164877;28;20048;-71
2020/12/15 02:47:25;;;;;;;5.47;3.10;;;8.50;99.90;;;;;;4167450;28;20131;-71
2020/12/15 02:49:27;;;;;;;6.22;3.13;;;8.50;99.90;;;;;;4170415;28;20041;-71
2020/12/15 02:51:28;;;;;;;7.30;3.28;;;8.50;99.90;;;;;;4168962;28;20443;-71
2020/12/15 02:53:28;;;;;;;6.78;3.15;;;8.50;99.90;;;;;;4165435;28;20091;-71
2020/12/15 02:55:29;;;;;;;6.57;2.95;;;8.50;99.90;;;;;;4168137;28;20033;-71
2020/12/15 02:57:30;;;;;;;6.97;3.03;;;8.50;99.90;;;;;;4169189;28;20095;-71
2020/12/15 02:59:31;;;;;;;5.13;3.30;;;8.50;99.90;;;;;;4168899;28;20030;-71
2020/12/15 03:01:37;;;;;;;5.55;2.70;;;8.50;99.90;;;;;;4166586;28;20037;-71
2020/12/15 03:03:37;;;;;;;4.95;2.97;;;8.50;99.90;;;;;;4168439;28;20041;-71
2020/12/15 03:05:38;;;;;;;7.55;3.35;;;8.50;99.90;;;;;;4166731;28;20037;-71
2020/12/15 03:07:38;;;;;;;5.78;3.13;;;8.50;99.90;;;;;;4168268;28;20144;-71
2020/12/15 03:09:40;;;;;;;5.97;3.13;;;8.50;99.90;;;;;;4169839;28;20032;-71
2020/12/15 03:11:41;;;;;;;5.18;3.42;;;8.50;99.90;;;;;;4166512;28;20119;-71
2020/12/15 03:13:41;;;;;;;6.60;3.40;;;8.60;99.90;;;;;;4147572;28;20041;-71
2020/12/15 03:15:42;;;;;;;5.45;3.08;;;8.50;99.90;;;;;;4166448;28;20033;-71
2020/12/15 03:17:42;;;;;;;6.80;3.50;;;8.50;99.90;;;;;;4167758;28;20052;-71
2020/12/15 03:19:43;;;;;;;9.88;3.65;;;8.50;99.90;;;;;;4166918;28;20041;-71
2020/12/15 03:21:44;;;;;;;6.53;3.03;;;8.50;99.90;;;;;;4169988;28;20037;-71
2020/12/15 03:23:44;;;;;;;6.30;3.50;;;8.50;99.90;;;;;;4167185;28;20109;-71
2020/12/15 03:25:45;;;;;;;5.18;3.22;;;8.50;99.90;;;;;;4167229;28;20033;-71
2020/12/15 03:27:47;;;;;;;6.82;3.50;;;8.50;99.90;;;;;;4169346;28;20695;-71
2020/12/15 03:29:48;;;;;;;5.50;3.40;;;8.50;99.90;;;;;;4168943;28;20041;-71
2020/12/15 03:31:48;;;;;;;6.95;3.55;;;8.50;99.90;;;;;;4169158;28;20519;-71
2020/12/15 03:33:51;;;;;;;6.65;3.75;;;8.50;99.90;;;;;;4167889;28;20456;-71
2020/12/15 03:35:51;;;;;;;5.63;3.13;;;8.50;99.90;;;;;;4170202;28;20025;-71
2020/12/15 03:37:52;;;;;;;9.38;4.05;;;8.50;99.90;;;;;;4168953;28;20417;-71
2020/12/15 03:39:52;;;;;;;9.48;4.20;;;8.50;99.90;;;;;;4166403;28;20497;-71
2020/12/15 03:41:54;;;;;;;5.65;3.50;;;8.50;99.90;;;;;;4168349;28;20083;-71
2020/12/15 03:43:55;;;;;;;9.17;4.10;;;8.50;99.90;;;;;;4168254;28;20124;-71
2020/12/15 03:45:55;;;;;;;6.20;3.40;;;8.50;99.90;;;;;;4167392;28;20048;-71
2020/12/15 03:47:57;;;;;;;5.70;3.25;;;8.50;99.90;;;;;;4168084;28;20029;-71
2020/12/15 03:49:59;;;;;;;7.20;3.60;;;8.50;99.90;;;;;;4163985;28;20120;-71
2020/12/15 03:52:00;;;;;;;6.45;3.40;;;8.50;99.90;;;;;;4150581;28;20367;-71
2020/12/15 03:54:02;;;;;;;;;;;8.40;99.90;;;;;;4183391;28;20385;-71
2020/12/15 03:56:03;;;;;;;6.13;3.08;;;8.50;99.90;;;;;;4163563;28;19963;-71
2020/12/15 03:58:03;;;;;;;6.88;3.60;;;8.50;99.90;;;;;;4164673;28;20437;-71
2020/12/15 04:00:07;;;;;;;6.07;3.63;;;8.50;99.90;;;;;;4169079;28;20113;-71
2020/12/15 04:02:08;;;;;;;7.68;3.65;;;8.40;99.90;;;;;;4161256;28;20041;-71
2020/12/15 04:04:09;;;;;;;6.55;4.18;;;8.40;99.90;;;;;;4168354;28;20041;-71
2020/12/15 04:06:09;;;;;;;7.72;3.83;;;8.40;99.90;;;;;;4169534;28;20040;-71
2020/12/15 04:08:10;;;;;;;6.93;3.80;;;8.50;99.90;;;;;;4166660;28;20036;-71
2020/12/15 04:10:11;;;;;;;6.72;3.90;;;8.50;99.90;;;;;;4165155;28;20084;-71
2020/12/15 04:12:14;;;;;;;6.85;3.85;;;8.50;99.90;;;;;;4150192;28;20044;-72
2020/12/15 04:14:15;;;;;;;5.47;3.40;;;8.40;99.90;;;;;;4149257;28;20073;-71
2020/12/15 04:16:16;;;;;;;9.40;3.88;;;8.50;99.90;;;;;;4166625;28;20071;-71
2020/12/15 04:18:16;;;;;;;5.40;3.42;;;8.50;99.90;;;;;;4168125;28;20038;-71
2020/12/15 04:20:17;;;;;;;8.85;3.88;;;8.50;99.90;;;;;;4168234;28;20030;-71
2020/12/15 04:22:17;;;;;;;5.40;3.75;;;8.50;99.90;;;;;;4168067;28;20037;-71
2020/12/15 04:24:18;;;;;;;6.43;3.60;;;8.50;99.90;;;;;;4168763;28;20052;-71
2020/12/15 04:26:18;;;;;;;7.25;3.55;;;8.50;99.90;;;;;;4163220;28;20042;-71
2020/12/15 04:28:19;;;;;;;6.60;3.72;;;8.50;99.90;;;;;;4170592;28;20029;-71
2020/12/15 04:30:20;;;;;;;7.25;3.15;;;8.50;99.90;;;;;;4170769;28;20644;-71
2020/12/15 04:32:20;;;;;;;7.43;4.07;;;8.50;99.90;;;;;;4171984;28;20082;-71
2020/12/15 04:34:21;;;;;;;5.85;3.70;;;8.50;99.90;;;;;;4170721;28;20543;-71
2020/12/15 04:36:21;;;;;;;5.43;3.20;;;8.50;99.90;;;;;;4171070;28;20041;-71
2020/12/15 04:38:22;;;;;;;5.32;3.53;;;8.50;99.90;;;;;;4170688;28;20049;-71
2020/12/15 04:40:22;;;;;;;5.75;3.53;;;8.50;99.90;;;;;;4171295;28;20021;-71
2020/12/15 04:42:23;;;;;;;8.13;4.03;;;8.60;99.90;;;;;;4170190;28;20033;-71
2020/12/15 04:44:25;;;;;;;5.75;3.78;;;8.60;99.90;;;;;;4171413;28;20044;-71
2020/12/15 04:46:27;;;;;;;6.75;3.72;;;8.60;99.90;;;;;;4169477;28;20096;-71
2020/12/15 04:48:31;;;;;;;6.53;4.10;;;8.60;99.90;;;;;;4173511;28;20029;-71
2020/12/15 04:50:34;;;;;;;5.25;3.38;;;8.60;99.90;;;;;;4172494;28;20104;-71
2020/12/15 04:52:54;;;;;;;9.38;3.85;;;8.60;99.90;;;;;;4169461;28;20040;-71
2020/12/15 04:54:55;;;;;;;6.53;4.05;;;8.60;99.90;;;;;;4169255;28;20373;-71
2020/12/15 04:57:01;;;;;;;6.15;3.70;;;8.60;99.90;;;;;;4170182;28;20037;-71
2020/12/15 04:59:08;;;;;;;7.15;4.07;;;8.60;99.90;;;;;;4168626;28;20121;-71
2020/12/15 05:01:09;;;;;;;6.15;3.70;;;8.60;99.90;;;;;;4170116;28;20389;-72
2020/12/15 05:03:13;;;;;;;8.13;3.80;;;8.60;99.90;;;;;;4169519;28;20116;-71
2020/12/15 05:05:14;;;;;;;6.20;4.03;;;8.60;99.90;;;;;;4172800;28;20021;-71
2020/12/15 05:07:14;;;;;;;7.05;4.10;;;8.60;99.90;;;;;;4172396;28;20492;-71
2020/12/15 05:09:28;;;;;;;6.65;3.85;;;8.60;99.90;;;;;;4170912;28;20033;-71
2020/12/15 05:11:28;;;;;;;9.07;4.20;;;8.60;99.90;;;;;;4167276;28;20055;-71
2020/12/15 05:13:30;;;;;;;8.02;4.47;;;8.60;99.90;;;;;;4169905;28;20112;-71
2020/12/15 05:15:33;;;;;;;6.18;3.72;;;8.60;99.90;;;;;;4169696;28;20052;-71
2020/12/15 05:17:35;;;;;;;;;;;8.60;99.90;;;;;;4170144;28;20049;-71
2020/12/15 05:19:43;;;;;;;5.25;3.45;;;8.60;99.90;;;;;;4172815;28;20930;-71
2020/12/15 05:22:01;;;;;;;8.40;4.50;;;8.60;99.90;;;;;;4167649;28;20094;-71
2020/12/15 05:24:07;;;;;;;5.95;3.67;;;8.70;99.90;;;;;;4167898;28;20021;-71
2020/12/15 05:26:08;;;;;;;8.57;4.13;;;8.60;99.90;;;;;;4170539;28;20033;-71
2020/12/15 05:28:14;;;;;;;6.60;4.18;;;8.60;99.90;;;;;;4170497;28;20524;-71
2020/12/15 05:30:15;;;;;;;7.05;3.35;;;8.70;99.90;;;;;;4168258;28;20394;-71
2020/12/15 05:32:17;;;;;;;8.05;4.38;;;8.70;99.90;;;;;;4168067;28;20029;-71
2020/12/15 05:34:25;;;;;;;9.32;4.38;;;8.60;99.90;;;;;;4169934;28;20037;-71
2020/12/15 05:36:26;;;;;;;7.00;4.18;;;8.60;99.90;;;;;;4168636;28;20566;-71
2020/12/15 05:38:27;;;;;;;6.13;3.78;;;8.60;99.90;;;;;;4168904;28;20041;-71
2020/12/15 05:40:27;;;;;;;7.18;3.65;;;8.60;99.90;;;;;;4169432;28;20095;-71
2020/12/15 05:42:29;;;;;;;7.05;3.72;;;8.70;99.90;;;;;;4170707;28;20037;-71
2020/12/15 05:44:31;;;;;;;6.13;3.78;;;8.70;99.90;;;;;;4170833;28;20096;-71
2020/12/15 05:46:33;;;;;;;8.43;4.75;;;8.60;99.90;;;;;;4165595;28;20242;-71
2020/12/15 05:48:34;;;;;;;15.07;4.43;;;8.70;99.90;;;;;;4152761;28;20057;-71
2020/12/15 05:50:39;;;;;;;5.45;3.67;;;8.60;99.90;;;;;;4150846;28;20556;-72
2020/12/15 05:52:40;;;;;;;5.25;3.33;;;8.60;99.90;;;;;;4161642;28;20040;-71
2020/12/15 05:54:40;;;;;;;7.60;3.85;;;8.60;99.90;;;;;;4154466;28;20037;-71
2020/12/15 05:56:41;;;;;;;6.15;3.92;;;8.70;99.90;;;;;;4171541;28;20022;-71
2020/12/15 05:58:52;;;;;;;6.32;3.58;;;8.60;99.90;;;;;;4161389;28;20034;-71
2020/12/15 06:00:52;;;;;;;9.35;4.32;;;8.70;99.90;;;;;;4160485;28;20036;-71
2020/12/15 06:02:58;;;;;;;8.43;4.55;;;8.70;99.90;;;;;;4168203;28;20033;-71
2020/12/15 06:05:00;;;;;;;7.05;3.80;;;8.70;99.90;;;;;;4172328;28;20522;-71
2020/12/15 06:07:05;;;;;;;8.43;4.10;;;8.60;99.90;;;;;;4169798;28;20055;-71
2020/12/15 06:09:10;;;;;;;8.13;3.63;;;8.70;99.90;;;;;;4174123;28;20059;-71
2020/12/15 06:11:12;;;;;;;;;;;8.60;99.90;;;;;;4167284;28;20501;-71
2020/12/15 06:13:14;;;;;;;6.40;4.05;;;8.70;99.90;;;;;;4160478;28;19964;-71
2020/12/15 06:15:15;;;;;;;7.20;4.55;;;8.60;99.90;;;;;;4170920;28;20042;-71
2020/12/15 06:17:22;;;;;;;7.68;4.30;;;8.60;99.90;;;;;;4154609;28;20053;-71
2020/12/15 06:19:23;;;;;;;7.60;4.05;;;8.60;99.90;;;;;;4158408;28;20120;-71
2020/12/15 06:21:24;;;;;;;8.18;4.68;;;8.60;99.90;;;;;;4161414;28;20029;-71
2020/12/15 06:23:26;;;;;;;7.55;4.35;;;8.60;99.90;;;;;;4159080;28;20056;-71
2020/12/15 06:25:35;;;;;;;8.40;4.18;;;8.60;99.90;;;;;;4162690;28;20041;-71
2020/12/15 06:27:36;;;;;;;8.23;4.00;;;8.60;99.90;;;;;;4155315;28;20042;-71
2020/12/15 06:29:39;;;;;;;8.32;4.30;;;8.60;99.90;;;;;;4175737;28;20028;-71
2020/12/15 06:31:49;;;;;;;8.82;5.13;;;8.60;99.90;;;;;;4175678;28;20032;-71
2020/12/15 06:33:54;;;;;;;9.52;5.20;;;8.60;99.90;;;;;;4173932;28;20033;-71
2020/12/15 06:35:55;;;;;;;9.68;4.55;;;8.60;99.90;;;;;;4175195;28;20044;-71
2020/12/15 06:38:04;;;;;;;8.75;4.65;;;8.60;99.90;;;;;;4118465;28;20448;-71
2020/12/15 06:40:05;;;;;;;8.07;4.45;;;8.60;99.90;;;;;;4166284;28;20497;-71
2020/12/15 06:42:07;;;;;;;11.20;4.95;;;8.60;99.90;;;;;;4166970;28;20040;-71
2020/12/15 06:44:08;;;;;;;5.63;4.20;;;8.60;99.90;;;;;;4164183;28;20040;-71
2020/12/15 06:46:12;;;;;;;9.60;5.13;;;8.60;99.90;;;;;;4173922;28;20609;-71
2020/12/15 06:48:14;;;;;;;8.68;4.70;;;8.60;99.90;;;;;;4163800;28;20096;-71
2020/12/15 06:50:17;;;;;;;9.27;4.80;;;8.60;99.90;;;;;;4164296;28;20048;-71
2020/12/15 06:52:27;;;;;;;9.60;5.03;;;8.60;99.90;;;;;;4172494;28;20155;-71
2020/12/15 06:54:30;;;;;;;9.80;4.90;;;8.60;99.90;;;;;;4155610;28;22307;-71
2020/12/15 06:56:32;;;;;;;9.07;4.43;;;8.60;99.90;;;;;;4165641;28;20440;-71
2020/12/15 06:58:33;;;;;;;8.93;5.13;;;8.60;99.90;;;;;;4170679;28;20416;-71
2020/12/15 07:00:41;;;;;;;7.47;4.63;;;8.60;99.90;;;;;;4167207;28;20041;-71
2020/12/15 07:02:50;;;;;;;9.52;4.50;;;8.60;99.90;;;;;;4168133;28;20090;-71
2020/12/15 07:04:58;;;;;;;10.55;5.90;;;8.60;99.90;;;;;;4164574;28;20028;-71
2020/12/15 07:06:59;;;;;;;9.30;5.18;;;8.60;99.90;;;;;;4164894;28;20040;-71
2020/12/15 07:09:08;;;;;;;9.27;5.43;;;8.60;99.90;;;;;;4151205;28;20037;-71
2020/12/15 07:11:09;;;;;;;8.93;4.55;;;8.70;99.90;;;;;;4167165;28;20037;-71
2020/12/15 07:13:13;;;;;;;7.82;5.35;;;8.60;99.90;;;;;;4169310;28;20072;-71
2020/12/15 07:15:18;;;;;;;9.25;5.32;;;8.60;99.90;;;;;;4164564;28;20079;-71
2020/12/15 07:17:22;;;;;;;6.93;4.95;;;8.60;99.90;;;;;;4164038;28;20167;-72
2020/12/15 07:19:23;;;;;;;8.25;5.03;;;8.70;99.90;;;;;;4158999;28;20135;-72
2020/12/15 07:21:29;;;;;;;6.57;4.90;;;8.70;99.90;;;;;;4162872;28;20033;-72
2020/12/15 07:23:29;;;;;;;9.00;5.35;;;8.70;99.90;;;;;;4169576;28;20079;-72
2020/12/15 07:25:30;;;;;;;11.23;5.68;;;8.70;99.90;;;;;;4172429;28;20381;-72
2020/12/15 07:27:34;;;;;;;10.13;5.72;;;8.70;99.90;;;;;;4160974;28;20034;-72
2020/12/15 07:29:35;;;;;;;9.80;5.45;;;8.70;99.90;;;;;;4159394;28;20087;-71
2020/12/15 07:31:35;;;;;;;12.43;5.95;;;8.70;99.90;;;;;;4169817;28;20033;-71
2020/12/15 07:33:38;;;;;;;9.45;5.80;;;8.70;99.90;;;;;;4165889;28;20049;-71
2020/12/15 07:35:38;;;;;;;16.80;5.47;;;8.70;99.90;;;;;;4164631;28;20668;-71
2020/12/15 07:37:41;;;;;;;16.42;6.40;;;8.70;99.90;;;;;;4162734;28;20037;-71
2020/12/15 07:39:41;;;;;;;9.80;5.75;;;8.70;99.90;;;;;;4169628;28;20036;-71
2020/12/15 07:41:43;;;;;;;9.15;5.18;;;8.80;99.90;;;;;;4168510;28;20044;-71
2020/12/15 07:43:54;;;;;;;9.57;5.68;;;8.80;99.90;;;;;;4159541;28;20481;-71
2020/12/15 07:45:55;;;;;;;8.80;5.43;;;8.80;99.90;;;;;;4160049;28;20033;-71
2020/12/15 07:47:57;;;;;;;13.35;6.78;;;8.80;99.90;;;;;;4160785;28;20041;-71
2020/12/15 07:49:57;;;;;;;12.80;5.95;;;8.80;99.90;;;;;;4158312;28;20053;-71
2020/12/15 07:51:58;;;;;;;9.93;6.15;;;8.80;99.90;;;;;;4148961;28;20393;-71
2020/12/15 07:53:59;;;;;;;9.23;5.63;;;8.80;99.90;;;;;;4154108;28;20202;-71
2020/12/15 07:56:06;;;;;;;10.45;6.38;;;8.80;99.90;;;;;;4170259;28;20105;-71
2020/12/15 07:58:16;;;;;;;10.77;5.82;;;8.80;99.90;;;;;;4160099;28;20391;-71
2020/12/15 08:00:20;;;;;;;11.02;6.63;;;8.80;99.90;;;;;;4167561;28;20076;-71
2020/12/15 08:02:21;;;;;;;13.15;7.05;;;8.80;99.90;;;;;;4159223;28;20041;-71
2020/12/15 08:04:24;;;;;;;8.88;6.68;;;8.90;99.90;;;;;;4171398;28;20041;-71
2020/12/15 08:06:28;;;;;;;9.48;6.55;;;8.90;99.90;;;;;;4170513;28;20489;-71
2020/12/15 08:08:29;;;;;;;10.50;6.47;;;8.90;99.90;;;;;;4166493;28;20033;-71
2020/12/15 08:10:34;;;;;;;9.93;6.68;;;8.90;99.90;;;;;;4169679;28;20039;-71
2020/12/15 08:12:35;;;;;;;13.00;7.88;;;8.90;99.90;;;;;;4162895;28;20038;-71
2020/12/15 08:14:39;;;;;;;10.30;6.45;;;8.90;99.90;;;;;;4178571;28;20026;-71
2020/12/15 08:16:43;;;;;;;11.55;6.20;;;8.90;99.90;;;;;;4168100;28;20052;-71
2020/12/15 08:18:45;;;;;;;10.32;5.85;;;8.90;99.90;;;;;;4166420;28;20553;-71
2020/12/15 08:20:46;;;;;;;15.60;6.50;;;8.90;99.90;;;;;;4166037;28;20039;-71
2020/12/15 08:22:50;;;;;;;7.95;5.18;;;9.00;99.90;;;;;;4168431;28;20091;-71
2020/12/15 08:24:54;;;;;;;10.98;5.72;;;9.00;99.90;;;;;;4169325;28;20635;-71
2020/12/15 08:26:55;;;;;;;9.77;5.68;;;9.00;99.90;;;;;;4171447;28;20366;-71
2020/12/15 08:29:03;;;;;;;10.43;6.07;;;9.00;99.90;;;;;;4173096;28;20032;-71
2020/12/15 08:31:09;;;;;;;13.43;6.65;;;9.00;99.90;;;;;;4162554;28;20058;-71
2020/12/15 08:33:21;;;;;;;11.90;6.18;;;9.00;99.90;;;;;;4161667;28;20381;-71
2020/12/15 08:35:25;;;;;;;13.10;5.97;;;9.00;99.90;;;;;;4167585;28;20041;-71
2020/12/15 08:37:27;;;;;;;14.90;6.07;;;9.10;99.90;;;;;;4166268;28;20029;-71
2020/12/15 08:39:28;;;;;;;11.00;6.00;;;9.10;99.90;;;;;;4168705;28;20037;-71
2020/12/15 08:41:28;;;;;;;13.30;7.05;;;9.10;99.90;;;;;;4171028;28;20037;-71
2020/12/15 08:43:30;;;;;;;10.60;6.20;;;9.10;99.90;;;;;;4172923;28;20041;-71
2020/12/15 08:45:31;;;;;;;11.10;6.60;;;9.10;99.90;;;;;;4175055;28;20092;-71
2020/12/15 08:47:32;;;;;;;10.80;6.38;;;9.10;99.90;;;;;;4168502;28;20771;-71
2020/12/15 08:49:33;;;;;;;15.23;7.20;;;9.10;99.90;;;;;;4164559;28;20427;-71
2020/12/15 08:51:39;;;;;;;11.63;6.03;;;9.10;99.90;;;;;;4164805;28;20462;-71
2020/12/15 08:53:41;;;;;;;9.40;6.00;;;9.10;99.90;;;;;;4168014;28;20072;-71
2020/12/15 08:55:46;;;;;;;13.30;5.90;;;9.10;99.90;;;;;;4160428;28;20029;-71
2020/12/15 08:57:57;;;;;;;11.82;6.88;;;9.20;99.90;;;;;;4164153;28;20029;-71
2020/12/15 09:00:11;;;;;;;11.50;6.18;;;9.20;99.90;;;;;;4162129;28;20033;-71
2020/12/15 09:02:19;;;;;;;8.80;5.78;;;9.20;99.90;;;;;;4171338;28;20033;-71
2020/12/15 09:04:26;;;;;;;11.77;6.15;;;9.20;99.90;;;;;;4159563;28;20069;-71
2020/12/15 09:06:31;;;;;;;12.13;6.03;;;9.30;99.90;;;;;;4168555;28;20087;-71
2020/12/15 09:08:32;;;;;;;14.52;6.72;;;9.30;99.90;;;;;;4165334;28;20594;-71
2020/12/15 09:10:33;;;;;;;13.20;6.80;;;9.30;99.90;;;;;;4176100;28;20060;-71
2020/12/15 09:12:35;;;;;;;12.43;7.03;;;9.30;99.90;;;;;;4171052;28;20025;-71
2020/12/15 09:14:36;;;;;;;12.18;7.13;;;9.30;99.90;;;;;;4165977;28;20670;-71
2020/12/15 09:16:38;;;;;;;12.20;6.38;;;9.30;99.90;;;;;;4158563;28;20049;-71
2020/12/15 09:18:39;;;;;;;11.30;7.07;;;9.30;99.90;;;;;;4154705;28;20029;-71
2020/12/15 09:20:40;;;;;;;9.05;6.43;;;9.30;99.90;;;;;;4161527;28;20134;-71
2020/12/15 09:22:42;;;;;;;11.63;6.60;;;9.40;99.90;;;;;;4168351;28;20037;-71
2020/12/15 09:24:43;;;;;;;16.75;7.45;;;9.40;99.90;;;;;;4171716;28;20124;-71
2020/12/15 09:26:44;;;;;;;11.18;7.30;;;9.40;99.90;;;;;;4169761;28;20079;-71
2020/12/15 09:28:44;;;;;;;10.82;6.50;;;9.40;99.90;;;;;;4150020;28;20033;-71
2020/12/15 09:30:45;;;;;;;11.23;5.90;;;9.40;99.90;;;;;;4174416;28;20033;-71
2020/12/15 09:32:45;;;;;;;10.88;6.43;;;9.40;99.90;;;;;;4175351;28;20082;-71
2020/12/15 09:34:47;;;;;;;10.13;6.20;;;9.50;99.90;;;;;;4154842;28;20441;-71
2020/12/15 09:36:57;;;;;;;8.60;5.43;;;9.50;99.90;;;;;;4161624;28;20087;-71
2020/12/15 09:38:58;;;;;;;14.18;6.47;;;9.50;99.90;;;;;;4169749;28;20045;-71
2020/12/15 09:41:00;;;;;;;9.95;6.18;;;9.50;99.90;;;;;;4166624;28;20075;-71
2020/12/15 09:43:00;;;;;;;8.95;5.60;;;9.50;99.90;;;;;;4172166;28;20037;-71
2020/12/15 09:45:02;;;;;;;11.02;6.40;;;9.60;99.90;;;;;;4171107;28;20036;-71
2020/12/15 09:47:04;;;;;;;8.30;5.85;;;9.60;99.90;;;;;;4172282;28;20047;-71
2020/12/15 09:49:04;;;;;;;12.68;6.25;;;9.60;99.90;;;;;;4175726;28;20029;-71
2020/12/15 09:51:05;;;;;;;8.82;6.25;;;9.60;99.90;;;;;;4165949;28;20087;-71
2020/12/15 09:53:06;;;;;;;11.60;6.25;;;9.60;99.90;;;;;;4162277;28;20030;-71
2020/12/15 09:55:06;;;;;;;11.13;6.30;;;9.60;99.90;;;;;;4166914;28;20037;-71
2020/12/15 09:57:07;;;;;;;11.00;6.55;;;9.60;99.90;;;;;;4162411;28;20067;-71
2020/12/15 09:59:08;;;;;;;11.48;6.68;;;9.60;99.90;;;;;;4161185;28;20037;-71
2020/12/15 10:01:09;;;;;;;8.45;5.95;;;9.60;99.90;;;;;;4165747;28;20033;-71
2020/12/15 10:03:10;;;;;;;11.20;6.78;;;9.60;99.90;;;;;;4169033;28;20045;-71
2020/12/15 10:05:10;;;;;;;9.35;5.60;;;9.60;99.90;;;;;;4157123;28;20033;-71
2020/12/15 10:07:13;;;;;;;10.90;6.57;;;9.60;99.90;;;;;;4156247;28;20046;-71
2020/12/15 10:09:15;;;;;;;11.23;7.47;;;9.60;99.90;;;;;;4160789;28;20492;-71
2020/12/15 10:11:17;;;;;;;9.07;6.47;;;9.60;99.90;;;;;;4168078;28;20037;-71
2020/12/15 10:13:18;;;;;;;8.70;6.07;;;9.60;99.90;;;;;;4166598;28;20032;-71
2020/12/15 10:15:19;;;;;;;9.15;5.88;;;9.70;99.90;;;;;;4162832;28;20029;-71
2020/12/15 10:17:19;;;;;;;11.40;6.45;;;9.70;99.90;;;;;;4161588;28;20421;-71
2020/12/15 10:19:22;;;;;;;11.50;6.05;;;9.70;99.90;;;;;;4164978;28;20051;-71
2020/12/15 10:21:22;;;;;;;8.38;6.07;;;9.70;99.90;;;;;;4169531;28;20117;-71
2020/12/15 10:23:23;;;;;;;8.38;5.55;;;9.70;99.90;;;;;;4164229;28;20052;-71
2020/12/15 10:25:23;;;;;;;8.77;5.88;;;9.70;99.90;;;;;;4174744;28;20058;-71
2020/12/15 10:27:24;;;;;;;10.70;6.15;;;9.70;99.90;;;;;;4158944;28;20044;-71
2020/12/15 10:29:29;;;;;;;9.70;5.70;;;9.70;99.90;;;;;;4168491;28;20625;-71
2020/12/15 10:31:30;;;;;;;8.30;5.57;;;9.70;99.90;;;;;;4166377;28;20044;-71
2020/12/15 10:33:30;;;;;;;7.00;5.30;;;9.70;99.90;;;;;;4169309;28;20481;-71
2020/12/15 10:35:31;;;;;;;9.25;6.22;;;9.70;99.90;;;;;;4164310;28;20037;-71
2020/12/15 10:37:31;;;;;;;7.85;5.75;;;9.70;99.90;;;;;;4179731;23;20125;-84
2020/12/15 10:39:32;;;;;;;10.35;6.03;;;9.80;99.90;;;;;;4157979;28;20045;-84
2020/12/15 10:41:36;;;;;;;9.60;6.35;;;9.80;99.90;;;;;;4139355;28;20488;-84
2020/12/15 10:43:37;;;;;;;11.40;5.82;;;9.80;99.90;;;;;;4151145;28;20381;-82